createdAt,value
2022-10-26T00:01:53.217Z,11.70
2022-10-26T00:04:21.582Z,11.70
2022-10-26T00:06:49.705Z,11.60
2022-10-26T00:09:18.017Z,11.60
2022-10-26T00:11:46.229Z,11.60
2022-10-26T00:14:15.850Z,11.60
2022-10-26T00:16:44.073Z,11.60
2022-10-26T00:19:12.271Z,11.60
2022-10-26T00:21:40.438Z,11.50
2022-10-26T00:24:08.820Z,11.50
2022-10-26T00:26:37.051Z,11.50
2022-10-26T00:29:05.931Z,11.50
2022-10-26T00:31:35.788Z,11.50
2022-10-26T00:34:04.027Z,11.50
2022-10-26T00:36:32.329Z,11.50
2022-10-26T00:39:00.615Z,11.50
2022-10-26T00:41:32.237Z,11.50
2022-10-26T00:44:01.227Z,11.40
2022-10-26T00:46:33.523Z,11.40
2022-10-26T00:49:06.553Z,11.40
2022-10-26T00:51:39.079Z,11.40
2022-10-26T00:54:12.911Z,11.30
2022-10-26T00:56:42.400Z,11.40
2022-10-26T00:59:13.407Z,11.30
2022-10-26T01:01:45.243Z,11.30
2022-10-26T01:04:16.368Z,11.20
2022-10-26T01:06:45.980Z,11.30
2022-10-26T01:09:14.562Z,11.20
2022-10-26T01:11:42.801Z,11.20
2022-10-26T01:14:13.331Z,11.10
2022-10-26T01:16:59.437Z,11.10
2022-10-26T01:19:58.231Z,11.10
2022-10-26T01:22:31.364Z,11.10
2022-10-26T01:25:21.952Z,11.10
2022-10-26T01:27:51.785Z,11.10
2022-10-26T01:30:35.716Z,11.00
2022-10-26T01:33:19.238Z,11.10
2022-10-26T01:35:53.870Z,11.00
2022-10-26T01:38:28.074Z,11.00
2022-10-26T01:41:02.184Z,11.00
2022-10-26T01:43:35.175Z,11.00
2022-10-26T01:46:06.188Z,10.90
2022-10-26T01:48:35.673Z,10.90
2022-10-26T01:51:05.623Z,10.80
2022-10-26T01:53:33.734Z,10.80
2022-10-26T01:56:03.728Z,10.80
2022-10-26T01:59:04.155Z,10.80
2022-10-26T02:01:52.146Z,10.80
2022-10-26T02:04:34.117Z,10.70
2022-10-26T02:07:04.828Z,10.80
2022-10-26T02:09:41.160Z,10.80
2022-10-26T02:12:21.558Z,10.80
2022-10-26T02:14:52.310Z,10.80
2022-10-26T02:17:29.887Z,10.80
2022-10-26T02:20:03.198Z,10.70
2022-10-26T02:22:34.669Z,10.70
2022-10-26T02:25:08.954Z,10.70
2022-10-26T02:27:42.172Z,10.70
2022-10-26T02:30:12.109Z,10.70
2022-10-26T02:32:45.293Z,10.70
2022-10-26T02:35:15.799Z,10.70
2022-10-26T02:37:47.048Z,10.70
2022-10-26T02:40:20.208Z,10.60
2022-10-26T02:42:50.159Z,10.60
2022-10-26T02:45:22.741Z,10.50
2022-10-26T02:47:53.070Z,10.50
2022-10-26T02:50:23.772Z,10.50
2022-10-26T02:53:02.550Z,10.50
2022-10-26T02:55:36.521Z,10.50
2022-10-26T02:58:09.859Z,10.50
2022-10-26T03:00:38.110Z,10.50
2022-10-26T03:03:07.908Z,10.50
2022-10-26T03:05:37.149Z,10.50
2022-10-26T03:08:05.403Z,10.50
2022-10-26T03:10:34.937Z,10.60
2022-10-26T03:13:03.186Z,10.50
2022-10-26T03:15:31.409Z,10.50
2022-10-26T03:17:59.664Z,10.50
2022-10-26T03:20:29.342Z,10.50
2022-10-26T03:22:58.072Z,10.50
2022-10-26T03:25:26.698Z,10.40
2022-10-26T03:27:59.108Z,10.40
2022-10-26T03:30:27.900Z,10.40
2022-10-26T03:32:56.394Z,10.30
2022-10-26T03:35:25.301Z,10.30
2022-10-26T03:37:54.927Z,10.20
2022-10-26T03:40:23.243Z,10.20
2022-10-26T03:42:51.797Z,10.20
2022-10-26T03:45:20.314Z,10.20
2022-10-26T03:47:49.457Z,10.30
2022-10-26T03:50:20.824Z,10.30
2022-10-26T03:52:50.199Z,10.30
2022-10-26T03:55:20.636Z,10.40
2022-10-26T03:57:48.823Z,10.40
2022-10-26T04:00:18.843Z,10.40
2022-10-26T04:02:54.469Z,10.40
2022-10-26T04:05:22.640Z,10.40
2022-10-26T04:07:54.502Z,10.40
2022-10-26T04:10:25.142Z,10.40
2022-10-26T04:12:53.960Z,10.40
2022-10-26T04:15:23.372Z,10.40
2022-10-26T04:17:57.561Z,10.40
2022-10-26T04:20:26.035Z,10.40
2022-10-26T04:23:00.929Z,10.30
2022-10-26T04:25:33.089Z,10.30
2022-10-26T04:28:02.080Z,10.30
2022-10-26T04:30:30.295Z,10.30
2022-10-26T04:32:58.462Z,10.30
2022-10-26T04:35:26.879Z,10.30
2022-10-26T04:37:59.029Z,10.30
2022-10-26T04:40:27.780Z,10.30
2022-10-26T04:42:57.722Z,10.30
2022-10-26T04:45:28.134Z,10.30
2022-10-26T04:48:04.859Z,10.30
2022-10-26T04:50:33.561Z,10.30
2022-10-26T04:53:02.322Z,10.30
2022-10-26T04:55:30.598Z,10.30
2022-10-26T04:58:01.541Z,10.30
2022-10-26T05:00:32.976Z,10.30
2022-10-26T05:03:01.898Z,10.30
2022-10-26T05:05:30.659Z,10.30
2022-10-26T05:07:59.400Z,10.40
2022-10-26T05:10:28.792Z,10.30
2022-10-26T05:13:00.744Z,10.30
2022-10-26T05:15:29.632Z,10.40
2022-10-26T05:17:58.579Z,10.40
2022-10-26T05:20:30.188Z,10.40
2022-10-26T05:22:58.740Z,10.40
2022-10-26T05:25:27.274Z,10.50
2022-10-26T05:28:00.744Z,10.50
2022-10-26T05:30:29.300Z,10.60
2022-10-26T05:32:58.096Z,10.60
2022-10-26T05:35:27.095Z,10.60
2022-10-26T05:37:55.584Z,10.60
2022-10-26T05:40:24.176Z,10.60
2022-10-26T05:42:52.990Z,10.70
2022-10-26T05:45:22.973Z,10.70
2022-10-26T05:47:51.439Z,10.70
2022-10-26T05:50:19.866Z,10.80
2022-10-26T05:52:49.333Z,10.80
2022-10-26T05:55:19.685Z,10.90
2022-10-26T05:57:48.603Z,10.90
2022-10-26T06:00:19.721Z,11.00
2022-10-26T06:03:05.407Z,11.00
2022-10-26T06:05:38.512Z,11.10
2022-10-26T06:08:11.485Z,11.20
2022-10-26T06:10:40.793Z,11.20
2022-10-26T06:13:09.655Z,11.30
2022-10-26T06:15:46.468Z,11.30
2022-10-26T06:18:25.720Z,11.40
2022-10-26T06:21:15.775Z,11.40
2022-10-26T06:23:52.981Z,11.50
2022-10-26T06:26:32.285Z,11.60
2022-10-26T06:29:11.908Z,11.60
2022-10-26T06:31:40.106Z,11.60
2022-10-26T06:34:12.655Z,11.70
2022-10-26T06:36:42.913Z,11.70
2022-10-26T06:39:13.677Z,11.70
2022-10-26T06:41:42.427Z,11.80
2022-10-26T06:44:23.827Z,11.80
2022-10-26T06:47:00.794Z,11.80
2022-10-26T06:49:36.278Z,11.80
2022-10-26T06:52:11.373Z,11.80
2022-10-26T06:54:50.565Z,11.80
2022-10-26T06:57:20.253Z,11.90
2022-10-26T06:59:52.193Z,12.00
2022-10-26T07:02:20.632Z,12.00
2022-10-26T07:04:50.616Z,12.00
2022-10-26T07:07:21.597Z,12.10
2022-10-26T07:09:50.387Z,12.10
2022-10-26T07:12:18.803Z,12.20
2022-10-26T07:14:47.080Z,12.20
2022-10-26T07:17:15.375Z,12.20
2022-10-26T07:19:44.817Z,12.30
2022-10-26T07:22:14.530Z,12.30
2022-10-26T07:24:42.615Z,12.30
2022-10-26T07:27:10.726Z,12.30
2022-10-26T07:29:39.756Z,12.30
2022-10-26T07:32:08.115Z,12.30
2022-10-26T07:34:36.251Z,12.40
2022-10-26T07:37:04.488Z,12.40
2022-10-26T07:39:34.162Z,12.50
2022-10-26T07:42:02.496Z,12.40
2022-10-26T07:44:30.691Z,12.50
2022-10-26T07:46:58.835Z,12.50
2022-10-26T07:49:27.917Z,12.60
2022-10-26T07:51:56.272Z,12.60
2022-10-26T07:54:24.382Z,12.60
2022-10-26T07:56:54.213Z,12.70
2022-10-26T07:59:22.672Z,12.60
2022-10-26T08:01:51.163Z,12.60
2022-10-26T08:04:19.328Z,12.60
2022-10-26T08:06:48.834Z,12.60
2022-10-26T08:09:16.939Z,12.50
2022-10-26T08:11:45.012Z,12.50
2022-10-26T08:14:14.919Z,12.50
2022-10-26T08:16:43.267Z,12.50
2022-10-26T08:19:11.468Z,12.50
2022-10-26T08:21:40.625Z,12.50
2022-10-26T08:24:10.019Z,12.50
2022-10-26T08:26:38.333Z,12.50
2022-10-26T08:29:06.890Z,12.60
2022-10-26T08:31:36.531Z,12.60
2022-10-26T08:34:04.928Z,12.60
2022-10-26T08:36:33.306Z,12.60
2022-10-26T08:39:01.551Z,12.50
2022-10-26T08:41:39.020Z,12.50
2022-10-26T08:44:19.539Z,12.50
2022-10-26T08:46:53.493Z,12.50
2022-10-26T08:49:25.554Z,12.50
2022-10-26T08:51:57.339Z,12.50
2022-10-26T08:54:36.253Z,12.50
2022-10-26T08:57:13.120Z,12.50
2022-10-26T08:59:48.693Z,12.60
2022-10-26T09:02:19.792Z,12.60
2022-10-26T09:04:48.700Z,12.50
2022-10-26T09:07:43.270Z,12.50
2022-10-26T09:10:32.118Z,12.50
2022-10-26T09:13:06.186Z,12.50
2022-10-26T09:15:45.105Z,12.40
2022-10-26T09:18:25.645Z,12.40
2022-10-26T09:21:12.732Z,12.40
2022-10-26T09:24:04.277Z,12.50
2022-10-26T09:26:39.215Z,12.60
2022-10-26T09:29:13.127Z,12.60
2022-10-26T09:31:43.681Z,12.60
2022-10-26T09:34:21.865Z,12.60
2022-10-26T09:36:55.369Z,12.70
2022-10-26T09:39:31.797Z,12.70
2022-10-26T09:42:03.862Z,12.80
2022-10-26T09:44:36.102Z,12.80
2022-10-26T09:47:12.025Z,12.90
2022-10-26T09:49:48.859Z,12.90
2022-10-26T09:52:17.770Z,13.00
2022-10-26T09:54:46.330Z,13.10
2022-10-26T09:57:17.078Z,13.10
2022-10-26T09:59:47.951Z,13.10
2022-10-26T10:02:34.960Z,13.10
2022-10-26T10:05:27.500Z,13.10
2022-10-26T10:08:18.909Z,13.00
2022-10-26T10:11:02.648Z,13.10
2022-10-26T10:13:32.699Z,13.10
2022-10-26T10:16:13.913Z,13.10
2022-10-26T10:18:43.460Z,13.20
2022-10-26T10:21:14.323Z,13.10
2022-10-26T10:23:52.058Z,13.20
2022-10-26T10:26:20.524Z,13.20
2022-10-26T10:28:59.352Z,13.20
2022-10-26T10:31:31.979Z,13.20
2022-10-26T10:34:00.187Z,13.20
2022-10-26T10:36:31.825Z,13.10
2022-10-26T10:39:01.152Z,13.20
2022-10-26T10:41:32.195Z,13.20
2022-10-26T10:44:07.651Z,13.20
2022-10-26T10:46:37.654Z,13.10
2022-10-26T10:49:07.716Z,13.20
2022-10-26T10:51:42.151Z,13.20
2022-10-26T10:54:23.779Z,13.20
2022-10-26T10:56:54.581Z,13.40
2022-10-26T10:59:42.360Z,13.40
2022-10-26T11:02:28.871Z,13.50
2022-10-26T11:05:26.454Z,13.60
2022-10-26T11:08:04.343Z,13.70
2022-10-26T11:10:38.163Z,13.70
2022-10-26T11:13:14.491Z,13.80
2022-10-26T11:15:45.721Z,13.90
2022-10-26T11:18:18.428Z,14.00
2022-10-26T11:20:52.727Z,14.10
2022-10-26T11:23:27.290Z,14.20
2022-10-26T11:26:00.579Z,14.20
2022-10-26T11:28:40.753Z,14.30
2022-10-26T11:31:13.064Z,14.30
2022-10-26T11:33:46.961Z,14.30
2022-10-26T11:36:21.159Z,14.40
2022-10-26T11:38:57.873Z,14.40
2022-10-26T11:41:31.406Z,14.60
2022-10-26T11:44:07.099Z,14.70
2022-10-26T11:46:40.503Z,14.70
2022-10-26T11:49:15.773Z,14.90
2022-10-26T11:51:51.593Z,15.00
2022-10-26T11:54:29.694Z,15.10
2022-10-26T11:56:59.580Z,15.20
2022-10-26T11:59:33.070Z,15.20
2022-10-26T12:02:06.396Z,15.20
2022-10-26T12:04:38.607Z,15.20
2022-10-26T12:07:14.674Z,15.20
2022-10-26T12:09:45.966Z,15.30
2022-10-26T12:12:22.214Z,15.30
2022-10-26T12:14:57.573Z,15.40
2022-10-26T12:17:30.916Z,15.40
2022-10-26T12:20:08.836Z,15.30
2022-10-26T12:22:40.999Z,15.30
2022-10-26T12:25:21.470Z,15.30
2022-10-26T12:27:55.555Z,15.30
2022-10-26T12:30:32.058Z,15.30
2022-10-26T12:33:01.853Z,15.30
2022-10-26T12:35:41.336Z,15.30
2022-10-26T12:38:49.629Z,15.30
2022-10-26T12:41:26.909Z,15.40
2022-10-26T12:43:59.980Z,15.40
2022-10-26T12:46:45.133Z,15.50
2022-10-26T12:49:49.299Z,15.50
2022-10-26T12:52:24.215Z,15.60
2022-10-26T12:55:14.835Z,15.70
2022-10-26T12:57:52.716Z,15.70
2022-10-26T13:00:25.590Z,15.80
2022-10-26T13:03:06.860Z,15.80
2022-10-26T13:05:56.378Z,15.90
2022-10-26T13:08:25.048Z,15.90
2022-10-26T13:11:04.630Z,15.80
2022-10-26T13:13:36.296Z,15.80
2022-10-26T13:16:05.452Z,15.70
2022-10-26T13:18:42.433Z,15.60
2022-10-26T13:21:13.865Z,15.60
2022-10-26T13:23:44.563Z,15.50
2022-10-26T13:26:14.946Z,15.50
2022-10-26T13:28:54.469Z,15.50
2022-10-26T13:31:59.805Z,15.50
2022-10-26T13:34:32.035Z,15.40
2022-10-26T13:37:06.927Z,15.30
2022-10-26T13:39:39.224Z,15.30
2022-10-26T13:42:09.131Z,15.20
2022-10-26T13:44:43.275Z,15.20
2022-10-26T13:47:16.348Z,15.30
2022-10-26T13:49:47.809Z,15.20
2022-10-26T13:52:21.388Z,15.10
2022-10-26T13:54:54.902Z,15.10
2022-10-26T13:57:26.663Z,15.10
2022-10-26T14:00:01.427Z,15.20
2022-10-26T14:02:32.254Z,15.10
2022-10-26T14:05:02.722Z,15.00
2022-10-26T14:07:37.663Z,15.00
2022-10-26T14:10:06.920Z,14.90
2022-10-26T14:12:35.698Z,14.90
2022-10-26T14:15:09.909Z,14.90
2022-10-26T14:17:38.075Z,14.80
2022-10-26T14:20:06.975Z,14.70
2022-10-26T14:22:35.237Z,14.70
2022-10-26T14:25:03.415Z,14.70
2022-10-26T14:27:34.403Z,14.70
2022-10-26T14:30:22.004Z,14.60
2022-10-26T14:32:52.967Z,14.60
2022-10-26T14:35:26.153Z,14.50
2022-10-26T14:37:59.660Z,14.50
2022-10-26T14:40:31.177Z,14.40
2022-10-26T14:43:01.021Z,14.40
2022-10-26T14:45:49.246Z,14.30
2022-10-26T14:48:30.063Z,14.30
2022-10-26T14:51:02.785Z,14.30
2022-10-26T14:53:35.888Z,14.20
2022-10-26T14:56:05.760Z,14.20
2022-10-26T14:58:35.524Z,14.20
2022-10-26T15:01:32.047Z,14.20
2022-10-26T15:04:06.390Z,14.20
2022-10-26T15:06:44.928Z,14.10
2022-10-26T15:09:33.969Z,14.10
2022-10-26T15:12:04.109Z,14.10
2022-10-26T15:14:32.691Z,14.10
2022-10-26T15:17:01.961Z,14.10
2022-10-26T15:19:31.784Z,14.00
2022-10-26T15:22:00.272Z,14.00
2022-10-26T15:24:36.094Z,14.00
2022-10-26T15:27:14.544Z,14.00
2022-10-26T15:29:44.564Z,14.00
2022-10-26T15:32:33.485Z,13.90
2022-10-26T15:35:27.938Z,13.90
2022-10-26T15:37:57.876Z,13.90
2022-10-26T15:40:29.172Z,13.90
2022-10-26T15:43:01.295Z,13.80
2022-10-26T15:45:33.266Z,13.70
2022-10-26T15:48:19.542Z,13.70
2022-10-26T15:50:49.228Z,13.70
2022-10-26T15:53:21.481Z,13.70
2022-10-26T15:55:50.147Z,13.70
2022-10-26T15:58:18.695Z,13.60
2022-10-26T16:00:47.228Z,13.70
2022-10-26T16:03:18.088Z,13.60
2022-10-26T16:05:46.568Z,13.60
2022-10-26T16:08:18.723Z,13.50
2022-10-26T16:10:48.373Z,13.60
2022-10-26T16:13:16.888Z,13.50
2022-10-26T16:15:45.594Z,13.50
2022-10-26T16:18:13.990Z,13.50
2022-10-26T16:20:42.788Z,13.40
2022-10-26T16:23:10.926Z,13.50
2022-10-26T16:25:44.786Z,13.40
2022-10-26T16:28:14.517Z,13.40
2022-10-26T16:30:42.696Z,13.40
2022-10-26T16:33:10.820Z,13.40
2022-10-26T16:35:38.926Z,13.40
2022-10-26T16:38:07.308Z,13.40
2022-10-26T16:40:35.552Z,13.40
2022-10-26T16:43:05.316Z,13.40
2022-10-26T16:45:33.497Z,13.40
2022-10-26T16:48:05.877Z,13.50
2022-10-26T16:50:36.366Z,13.50
2022-10-26T16:53:05.136Z,13.50
2022-10-26T16:55:33.547Z,13.50
2022-10-26T16:58:01.806Z,13.50
2022-10-26T17:00:31.716Z,13.50
2022-10-26T17:03:02.285Z,13.50
2022-10-26T17:05:30.592Z,13.50
2022-10-26T17:07:58.744Z,13.50
2022-10-26T17:10:28.013Z,13.50
2022-10-26T17:12:57.615Z,13.50
2022-10-26T17:15:28.853Z,13.50
2022-10-26T17:17:58.962Z,13.50
2022-10-26T17:20:27.222Z,13.50
2022-10-26T17:22:57.417Z,13.50
2022-10-26T17:25:25.707Z,13.40
2022-10-26T17:27:53.911Z,13.40
2022-10-26T17:30:22.232Z,13.40
2022-10-26T17:32:50.698Z,13.40
2022-10-26T17:35:20.532Z,13.40
2022-10-26T17:37:49.038Z,13.40
2022-10-26T17:40:17.457Z,13.40
2022-10-26T17:42:45.601Z,13.30
2022-10-26T17:45:13.875Z,13.30
2022-10-26T17:47:42.081Z,13.30
2022-10-26T17:50:10.498Z,13.30
2022-10-26T17:52:40.107Z,13.20
2022-10-26T17:55:08.749Z,13.20
2022-10-26T17:57:36.837Z,13.20
2022-10-26T18:00:06.413Z,13.10
2022-10-26T18:02:37.581Z,13.10
2022-10-26T18:05:07.607Z,13.00
2022-10-26T18:07:36.314Z,13.00
2022-10-26T18:10:25.857Z,13.00
2022-10-26T18:12:54.798Z,13.00
2022-10-26T18:15:23.982Z,13.00
2022-10-26T18:17:56.758Z,13.00
2022-10-26T18:20:26.806Z,13.00
2022-10-26T18:22:54.949Z,13.00
2022-10-26T18:25:24.622Z,12.90
2022-10-26T18:27:52.785Z,12.90
2022-10-26T18:30:20.915Z,12.80
2022-10-26T18:32:50.675Z,12.90
2022-10-26T18:35:19.557Z,12.80
2022-10-26T18:37:48.213Z,12.80
2022-10-26T18:40:16.732Z,12.80
2022-10-26T18:42:46.282Z,12.80
2022-10-26T18:45:14.414Z,12.80
2022-10-26T18:47:42.589Z,12.80
2022-10-26T18:50:11.015Z,12.80
2022-10-26T18:52:39.197Z,12.80
2022-10-26T18:55:08.494Z,12.80
2022-10-26T18:57:36.659Z,12.90
2022-10-26T19:00:07.236Z,12.90
2022-10-26T19:02:35.432Z,12.90
2022-10-26T19:05:03.605Z,12.90
2022-10-26T19:07:31.682Z,12.90
2022-10-26T19:09:59.861Z,12.90
2022-10-26T19:12:28.226Z,12.90
2022-10-26T19:14:56.421Z,12.90
2022-10-26T19:17:26.293Z,13.00
2022-10-26T19:19:54.568Z,13.00
2022-10-26T19:22:22.700Z,13.00
2022-10-26T19:24:50.964Z,13.00
2022-10-26T19:27:19.198Z,13.00
2022-10-26T19:29:47.339Z,13.00
2022-10-26T19:32:15.688Z,13.10
2022-10-26T19:34:45.503Z,13.00
2022-10-26T19:37:13.692Z,13.00
2022-10-26T19:39:41.946Z,13.00
2022-10-26T19:42:10.216Z,13.10
2022-10-26T19:44:38.390Z,13.10
2022-10-26T19:47:06.553Z,13.10
2022-10-26T19:49:34.838Z,13.10
2022-10-26T19:52:04.582Z,13.10
2022-10-26T19:54:32.852Z,13.10
2022-10-26T19:57:01.132Z,13.10
2022-10-26T19:59:29.305Z,13.10
2022-10-26T20:01:58.092Z,13.20
2022-10-26T20:04:26.368Z,13.10
2022-10-26T20:07:17.255Z,13.20
2022-10-26T20:09:45.454Z,13.20
2022-10-26T20:12:13.997Z,13.20
2022-10-26T20:14:42.264Z,13.20
2022-10-26T20:17:10.413Z,13.20
2022-10-26T20:19:38.573Z,13.20
2022-10-26T20:22:06.793Z,13.20
2022-10-26T20:24:36.354Z,13.20
2022-10-26T20:27:04.669Z,13.20
2022-10-26T20:29:32.759Z,13.20
2022-10-26T20:32:00.880Z,13.20
2022-10-26T20:36:57.188Z,13.20
2022-10-26T20:39:25.793Z,13.20
2022-10-26T20:41:56.191Z,13.20
2022-10-26T20:44:29.722Z,13.20
2022-10-26T20:46:58.413Z,13.20
2022-10-26T20:49:27.095Z,13.20
2022-10-26T20:52:20.113Z,13.20
2022-10-26T20:54:54.281Z,13.20
2022-10-26T20:57:29.625Z,13.30
2022-10-26T21:00:03.736Z,13.20
2022-10-26T21:02:32.713Z,13.30
2022-10-26T21:05:01.014Z,13.30
2022-10-26T21:07:31.735Z,13.30
2022-10-26T21:10:00.106Z,13.30
2022-10-26T21:12:30.991Z,13.30
2022-10-26T21:14:59.276Z,13.30
2022-10-26T21:17:27.445Z,13.20
2022-10-26T21:19:55.661Z,13.30
2022-10-26T21:22:23.845Z,13.20
2022-10-26T21:24:52.059Z,13.20
2022-10-26T21:27:20.269Z,13.20
2022-10-26T21:29:50.013Z,13.20
2022-10-26T21:32:18.354Z,13.20
2022-10-26T21:34:47.549Z,13.20
2022-10-26T21:37:18.161Z,13.20
2022-10-26T21:39:46.303Z,13.20
2022-10-26T21:42:14.358Z,13.20
2022-10-26T21:44:42.417Z,13.20
2022-10-26T21:47:12.689Z,13.20
2022-10-26T21:52:10.332Z,13.20
2022-10-26T21:54:38.461Z,13.10
2022-10-26T21:57:06.600Z,13.10
2022-10-26T21:59:34.787Z,13.10
2022-10-26T22:02:03.129Z,13.10
2022-10-26T22:04:32.859Z,13.10
2022-10-26T22:07:01.035Z,13.00
2022-10-26T22:09:29.250Z,13.00
2022-10-26T22:11:57.640Z,13.00
2022-10-26T22:14:25.803Z,13.00
2022-10-26T22:16:54.075Z,12.90
2022-10-26T22:19:22.252Z,12.90
2022-10-26T22:21:51.734Z,12.80
2022-10-26T22:24:20.033Z,12.80
2022-10-26T22:26:48.189Z,12.80
2022-10-26T22:29:16.388Z,12.80
2022-10-26T22:31:44.576Z,12.70
2022-10-26T22:34:16.288Z,12.70
2022-10-26T22:36:45.016Z,12.70
2022-10-26T22:39:14.762Z,12.60
2022-10-26T22:41:43.283Z,12.60
2022-10-26T22:44:11.707Z,12.60
2022-10-26T22:46:39.968Z,12.60
2022-10-26T22:49:08.035Z,12.60
2022-10-26T22:51:36.515Z,12.60
2022-10-26T22:54:06.145Z,12.60
2022-10-26T22:56:37.493Z,12.50
2022-10-26T22:59:06.366Z,12.50
2022-10-26T23:01:38.244Z,12.50
2022-10-26T23:04:06.640Z,12.50
2022-10-26T23:06:35.113Z,12.50
2022-10-26T23:09:03.347Z,12.50
2022-10-26T23:11:31.930Z,12.40
2022-10-26T23:14:03.129Z,12.40
2022-10-26T23:16:31.882Z,12.40
2022-10-26T23:19:00.489Z,12.40
2022-10-26T23:21:29.791Z,12.30
2022-10-26T23:23:58.409Z,12.30
2022-10-26T23:26:26.992Z,12.30
2022-10-26T23:28:55.140Z,12.30
2022-10-26T23:31:26.695Z,12.20
2022-10-26T23:33:56.169Z,12.20
2022-10-26T23:36:24.669Z,12.20
2022-10-26T23:38:52.961Z,12.20
2022-10-26T23:41:21.158Z,12.20
2022-10-26T23:43:49.316Z,12.20
2022-10-26T23:46:17.678Z,12.20
2022-10-26T23:48:47.333Z,12.20
2022-10-26T23:51:15.453Z,12.10
2022-10-26T23:53:43.597Z,12.10
2022-10-26T23:56:11.767Z,12.10
2022-10-26T23:58:39.832Z,12.10
